Albrightsville, Pennsylvania
Current Conditions -  °F | °C
As of 1:53 PM on Friday 31 Oct 2014 (Local Time) from KMPO Reporting Station
Clear Clear  
Wind Chill: 42°   Ceiling: Unl
Heat Index: 46°   Visibility: 10mi
Dew Point: 30°   Wind: 8mph
Humidity: 54%   Direction: 120°ESE
Pressure: 29.9"   Gusts: NA
Location:  41°N, 75.53°W
Report Text: KMPO 311753Z AUTO 12007KT 10SM CLR 08/M01 A2990 RMK AO2 SLP138 T00781011 10078 21033 58020 $
Loading
Personal Weather Stations






























Interactive Weather Map
Tropical Storm Tracking
New forecast layout! Learn more

10-Day Weather Forecast

Advertisements
Track Severe Weather on mobile